createdAt,value
2019-02-25T00:02:58.101Z,71.82
2019-02-25T00:08:03.741Z,72.34
2019-02-25T00:13:08.993Z,72.61
2019-02-25T00:18:14.262Z,72.92
2019-02-25T00:23:19.822Z,73.29
2019-02-25T00:28:25.488Z,73.67
2019-02-25T00:33:30.902Z,74.05
2019-02-25T00:38:36.506Z,74.42
2019-02-25T00:43:42.113Z,75.24
2019-02-25T00:48:47.431Z,75.91
2019-02-25T00:53:52.892Z,76.07
2019-02-25T00:58:58.570Z,76.69
2019-02-25T01:04:04.227Z,76.51
2019-02-25T01:09:09.763Z,76.80
2019-02-25T01:14:15.277Z,77.17
2019-02-25T01:19:20.799Z,77.56
2019-02-25T01:24:26.273Z,77.68
2019-02-25T01:29:31.845Z,78.11
2019-02-25T01:34:37.391Z,78.46
2019-02-25T01:39:42.975Z,78.76
2019-02-25T01:44:49.877Z,79.08
2019-02-25T01:49:55.609Z,79.05
2019-02-25T01:55:00.888Z,79.04
2019-02-25T02:00:20.070Z,79.09
2019-02-25T02:05:25.434Z,78.55
2019-02-25T02:10:30.989Z,78.42
2019-02-25T02:15:36.361Z,78.43
2019-02-25T02:20:41.807Z,78.27
2019-02-25T02:25:47.477Z,78.76
2019-02-25T02:30:53.136Z,78.60
2019-02-25T02:35:58.739Z,78.58
2019-02-25T02:41:04.165Z,78.81
2019-02-25T02:46:14.907Z,78.45
2019-02-25T02:51:21.162Z,78.46
2019-02-25T02:56:26.591Z,78.19
2019-02-25T03:01:31.799Z,78.30
2019-02-25T03:06:37.028Z,78.54
2019-02-25T03:11:42.365Z,78.85
2019-02-25T03:16:47.523Z,78.66
2019-02-25T03:21:52.981Z,78.55
2019-02-25T03:26:58.540Z,78.59
2019-02-25T03:32:03.683Z,78.95
2019-02-25T03:37:08.948Z,79.06
2019-02-25T03:42:14.057Z,79.06
2019-02-25T03:47:19.372Z,79.03
2019-02-25T03:52:24.616Z,79.05
2019-02-25T03:57:29.954Z,78.95
2019-02-25T04:02:35.326Z,78.94
2019-02-25T04:07:41.203Z,78.92
2019-02-25T04:12:46.834Z,78.93
2019-02-25T04:17:52.171Z,78.94
2019-02-25T04:22:57.504Z,78.67
2019-02-25T04:28:02.938Z,78.67
2019-02-25T04:33:08.317Z,78.28
2019-02-25T04:38:13.565Z,78.04
2019-02-25T04:43:18.710Z,77.83
2019-02-25T04:48:24.021Z,77.59
2019-02-25T04:53:30.261Z,77.71
2019-02-25T04:58:35.453Z,77.45
2019-02-25T05:03:41.184Z,77.21
2019-02-25T05:08:46.661Z,77.12
2019-02-25T05:13:51.807Z,77.08
2019-02-25T05:18:57.322Z,77.25
2019-02-25T05:24:02.612Z,77.28
2019-02-25T05:29:08.071Z,76.95
2019-02-25T05:34:13.438Z,76.84
2019-02-25T05:39:18.797Z,76.73
2019-02-25T05:44:24.158Z,76.64
2019-02-25T05:49:29.511Z,76.50
2019-02-25T05:54:34.662Z,76.68
2019-02-25T05:59:40.003Z,76.37
2019-02-25T06:04:45.226Z,76.04
2019-02-25T06:09:50.731Z,76.11
2019-02-25T06:14:56.099Z,75.93
2019-02-25T06:20:01.664Z,75.83
2019-02-25T06:25:09.374Z,75.47
2019-02-25T06:30:19.432Z,75.08
2019-02-25T06:35:25.122Z,74.88
2019-02-25T06:40:30.509Z,74.59
2019-02-25T06:45:38.773Z,74.74
2019-02-25T06:50:44.035Z,74.42
2019-02-25T06:55:49.280Z,74.01
2019-02-25T07:00:54.872Z,74.37
2019-02-25T07:06:04.851Z,74.49
2019-02-25T07:11:26.894Z,74.50
2019-02-25T07:16:33.596Z,74.29
2019-02-25T07:21:41.949Z,74.03
2019-02-25T07:27:04.842Z,73.80
2019-02-25T07:32:11.859Z,73.67
2019-02-25T07:37:30.519Z,73.84
2019-02-25T07:42:40.261Z,74.10
2019-02-25T07:47:59.412Z,74.12
2019-02-25T07:53:06.251Z,73.76
2019-02-25T07:58:16.133Z,73.71
2019-02-25T08:03:38.090Z,73.21
2019-02-25T08:08:53.690Z,73.25
2019-02-25T08:14:01.013Z,74.05
2019-02-25T08:19:23.070Z,74.34
2019-02-25T08:24:30.992Z,73.38
2019-02-25T08:29:44.423Z,72.75
2019-02-25T08:35:00.096Z,72.96
2019-02-25T08:40:22.165Z,71.85
2019-02-25T08:45:30.184Z,71.34
2019-02-25T08:50:35.566Z,70.88
2019-02-25T08:55:40.756Z,71.01
2019-02-25T09:00:46.055Z,70.48
2019-02-25T09:05:51.926Z,69.69
2019-02-25T09:10:57.402Z,69.03
2019-02-25T09:16:03.264Z,68.30
2019-02-25T09:21:08.899Z,68.28
2019-02-25T09:26:14.187Z,68.69
2019-02-25T09:31:20.864Z,68.75
2019-02-25T09:36:27.459Z,69.58
2019-02-25T09:41:32.827Z,69.17
2019-02-25T09:46:38.107Z,70.46
2019-02-25T09:51:43.749Z,70.94
2019-02-25T09:56:49.100Z,70.89
2019-02-25T10:01:54.611Z,70.95
2019-02-25T10:07:02.456Z,71.19
2019-02-25T10:12:07.205Z,71.05
2019-02-25T10:17:12.890Z,71.06
2019-02-25T10:22:18.792Z,71.77
2019-02-25T10:27:24.490Z,72.78
2019-02-25T10:32:30.266Z,71.90
2019-02-25T10:37:36.404Z,71.57
2019-02-25T10:42:42.660Z,70.77
2019-02-25T10:47:49.586Z,70.58
2019-02-25T10:53:03.297Z,70.02
2019-02-25T10:58:03.640Z,69.71
2019-02-25T11:03:10.716Z,69.50
2019-02-25T11:08:18.056Z,68.85
2019-02-25T11:13:23.239Z,68.01
2019-02-25T11:18:28.620Z,68.44
2019-02-25T11:23:34.105Z,68.12
2019-02-25T11:28:41.235Z,68.74
2019-02-25T11:33:46.707Z,69.38
2019-02-25T11:38:52.347Z,69.30
2019-02-25T11:43:57.606Z,69.33
2019-02-25T11:49:03.086Z,69.30
2019-02-25T11:54:08.479Z,69.48
2019-02-25T11:59:13.788Z,68.95
2019-02-25T12:04:19.340Z,68.29
2019-02-25T12:09:24.563Z,67.69
2019-02-25T12:14:30.166Z,67.37
2019-02-25T12:19:35.624Z,66.81
2019-02-25T12:24:41.602Z,67.39
2019-02-25T12:29:47.165Z,67.24
2019-02-25T12:34:52.629Z,66.60
2019-02-25T12:39:58.103Z,67.29
2019-02-25T12:45:03.866Z,66.21
2019-02-25T12:50:13.109Z,65.97
2019-02-25T12:55:19.589Z,65.33
2019-02-25T13:00:25.773Z,65.91
2019-02-25T13:05:31.135Z,66.11
2019-02-25T13:10:36.521Z,66.62
2019-02-25T13:15:41.745Z,67.01
2019-02-25T13:20:47.292Z,66.84
2019-02-25T13:25:52.606Z,67.88
2019-02-25T13:30:58.847Z,67.42
2019-02-25T13:36:07.888Z,67.33
2019-02-25T13:41:13.470Z,67.31
2019-02-25T13:46:19.306Z,67.43
2019-02-25T13:51:24.684Z,68.13
2019-02-25T13:56:30.281Z,68.28
2019-02-25T14:01:35.609Z,68.39
2019-02-25T14:06:41.070Z,67.54
2019-02-25T14:11:46.526Z,67.49
2019-02-25T14:16:52.499Z,66.99
2019-02-25T14:21:58.271Z,67.50
2019-02-25T14:27:03.738Z,67.18
2019-02-25T14:32:10.932Z,67.70
2019-02-25T14:37:17.931Z,68.14
2019-02-25T14:42:25.908Z,68.54
2019-02-25T14:47:36.923Z,68.80
2019-02-25T14:52:39.539Z,68.71
2019-02-25T14:57:45.530Z,68.38
2019-02-25T15:02:50.764Z,68.78
2019-02-25T15:07:56.527Z,68.77
2019-02-25T15:13:03.839Z,68.50
2019-02-25T15:18:08.965Z,68.87
2019-02-25T15:23:16.512Z,68.96
2019-02-25T15:28:22.507Z,69.01
2019-02-25T15:33:27.957Z,68.90
2019-02-25T15:38:34.900Z,69.14
2019-02-25T15:43:40.963Z,69.30
2019-02-25T15:48:46.546Z,69.54
2019-02-25T15:53:54.100Z,69.84
2019-02-25T15:58:59.352Z,70.03
2019-02-25T16:04:06.930Z,70.02
2019-02-25T16:09:17.016Z,70.25
2019-02-25T16:14:21.813Z,70.53
2019-02-25T16:19:41.168Z,70.79
2019-02-25T16:24:36.466Z,71.14
2019-02-25T16:29:42.366Z,71.12
2019-02-25T16:34:47.812Z,71.50
2019-02-25T16:39:53.718Z,71.03
2019-02-25T16:45:01.424Z,71.33
2019-02-25T16:50:11.838Z,71.71
2019-02-25T16:55:22.729Z,71.39
2019-02-25T17:00:32.301Z,71.07
2019-02-25T17:05:37.957Z,70.97
2019-02-25T17:10:44.333Z,71.04
2019-02-25T17:15:49.905Z,71.18
2019-02-25T17:20:55.320Z,71.42
2019-02-25T17:26:02.035Z,71.35
2019-02-25T17:31:09.040Z,70.99
2019-02-25T17:36:16.582Z,71.17
2019-02-25T17:41:22.529Z,71.07
2019-02-25T17:46:28.779Z,70.81
2019-02-25T17:51:35.435Z,70.58
2019-02-25T17:56:43.138Z,70.71
2019-02-25T18:01:50.132Z,70.77
2019-02-25T18:06:55.616Z,70.68
2019-02-25T18:12:02.240Z,70.70
2019-02-25T18:17:10.304Z,70.99
2019-02-25T18:22:17.313Z,70.67
2019-02-25T18:27:24.339Z,70.71
2019-02-25T18:32:30.425Z,70.92
2019-02-25T18:37:39.697Z,70.73
2019-02-25T18:42:45.242Z,70.89
2019-02-25T18:47:50.563Z,70.93
2019-02-25T18:52:57.224Z,70.73
2019-02-25T18:58:05.100Z,70.51
2019-02-25T19:03:11.672Z,70.39
2019-02-25T19:08:21.692Z,70.44
2019-02-25T19:13:27.668Z,70.60
2019-02-25T19:18:34.468Z,70.69
2019-02-25T19:23:41.851Z,70.47
2019-02-25T19:28:48.076Z,71.03
2019-02-25T19:33:54.710Z,71.45
2019-02-25T19:39:04.932Z,71.50
2019-02-25T19:44:10.604Z,71.58
2019-02-25T19:49:18.368Z,71.75
2019-02-25T19:54:23.551Z,72.37
2019-02-25T19:59:30.936Z,72.87
2019-02-25T20:04:38.204Z,72.96
2019-02-25T20:09:44.841Z,72.92
2019-02-25T20:14:50.340Z,73.23
2019-02-25T20:19:55.466Z,73.29
2019-02-25T20:25:00.627Z,73.64
2019-02-25T20:30:08.980Z,73.94
2019-02-25T20:35:17.733Z,74.06
2019-02-25T20:40:26.678Z,74.45
2019-02-25T20:45:35.296Z,74.83
2019-02-25T20:50:41.068Z,74.66
2019-02-25T20:55:48.241Z,74.68
2019-02-25T21:00:54.426Z,74.48
2019-02-25T21:06:02.772Z,74.30
2019-02-25T21:11:10.999Z,74.40
2019-02-25T21:16:16.217Z,74.20
2019-02-25T21:21:21.552Z,74.29
2019-02-25T21:26:29.270Z,74.32
2019-02-25T21:31:34.145Z,74.33
2019-02-25T21:36:40.367Z,74.32
2019-02-25T21:41:45.992Z,74.25
2019-02-25T21:46:54.018Z,74.17
2019-02-25T21:52:00.347Z,74.21
2019-02-25T21:57:09.645Z,73.96
2019-02-25T22:02:14.595Z,73.62
2019-02-25T22:07:24.392Z,73.49
2019-02-25T22:12:30.861Z,73.33
2019-02-25T22:17:34.464Z,73.11
2019-02-25T22:22:39.891Z,72.82
2019-02-25T22:27:45.635Z,72.47
2019-02-25T22:32:51.159Z,72.60
2019-02-25T22:37:58.169Z,72.45
2019-02-25T22:43:03.586Z,72.27
2019-02-25T22:48:11.598Z,72.06
2019-02-25T22:53:16.423Z,72.05
2019-02-25T22:58:21.838Z,71.79
2019-02-25T23:03:27.840Z,71.82
2019-02-25T23:08:33.529Z,71.69
2019-02-25T23:13:38.756Z,71.40
2019-02-25T23:18:44.097Z,71.42
2019-02-25T23:23:53.428Z,71.49
2019-02-25T23:28:58.135Z,71.55
2019-02-25T23:34:05.607Z,71.66
2019-02-25T23:39:12.394Z,71.73
2019-02-25T23:44:19.773Z,71.21
2019-02-25T23:49:27.518Z,70.94
2019-02-25T23:54:32.068Z,70.27
2019-02-25T23:59:40.452Z,70.10
